Hauptseite
METAR-TAF:

METAR-TAF

Flughäfen :

Flughafen Tanger-Boukhalef

Tanger, Marokko

Breite: 35-44N, Länge: 005-54W, Höhe: 19 m

Beobachtung

Neuester Wetterbericht von vor 32 Minuten, um 21:30 UTC
Wind 3 kt aus Ost/Nordost, variierte zwischen Nord/Nordost und Ost
Temperatur 13°C
Luftfeuchtigkeit 88%
Luftdruck 1025 hPa
Sichtweite 10 km oder mehr
Leicht bewölkt in der Höhe von 2600 ft

METAR: GMTT 072130Z 06003KT 030V090 9999 FEW026 13/11 Q1025 NOSIG

Zeit: 23:02 (22:02 UTC)

Prognose

Neuester Wetterbericht von vor 5 Stunden und 2 Minuten, um 17:00 UTC
Gültige Prognose vom 07 um 18 UTC bis 08 um 24 UTC
Wind 2 kt aus unterschiedlichen Richtungen
Sichtweite: 8000 m
Aufgelockert bewölkt in der Höhe von 2600 ft
Wahrscheinlichkeit 40%
vom 07 um 22 UTC bis 08 um 08 UTC
Sichtweite: 3000 m
feuchter Dunst

TAF: GMTT 071700Z 0718/0824 VRB02KT 8000 SCT026 PROB40 0722/0808 3000 BR

Wetterbeobachtungen und Prognosen von mehr als 4000 Flughäfen (METAR und TAF Bericht).

Die verfügbaren Stationen werden durch gelbe und rote Markierungen auf der Karte dargestellt.

Führen Sie die Maus auf sie, um den Namen der Station zu sehen.

Darauf klicken, um die Beobachtung von Wetterbeobachtungen und Prognosen zu sehen.

Um die Karte zu ändern : klicken Sie auf den grünen Tasten mit einem schwarzen Kreuz Zum Vergrößern, auf den grünen Button mit einem Gedankenstrich zu verkleinern, oder auf die grünen Pfeile für benachbarte Karten.


METAR-TAF: